sensor_id;sensor_type;location;lat;lon;timestamp;pressure;altitude;pressure_sealevel;temperature;humidity
6778;BME280;3426;52.244;10.534;2022-08-19T00:01:41;100305.78;;;25.10;60.00
6778;BME280;3426;52.244;10.534;2022-08-19T00:04:10;100308.75;;;25.60;58.61
6778;BME280;3426;52.244;10.534;2022-08-19T00:06:39;100312.63;;;25.36;59.25
6778;BME280;3426;52.244;10.534;2022-08-19T00:09:09;100307.72;;;25.61;58.70
6778;BME280;3426;52.244;10.534;2022-08-19T00:11:37;100306.78;;;25.69;58.14
6778;BME280;3426;52.244;10.534;2022-08-19T00:14:06;100306.34;;;25.50;59.02
6778;BME280;3426;52.244;10.534;2022-08-19T00:16:32;100309.31;;;25.55;58.34
6778;BME280;3426;52.244;10.534;2022-08-19T00:18:59;100318.09;;;25.57;58.28
6778;BME280;3426;52.244;10.534;2022-08-19T00:21:26;100325.59;;;25.55;58.18
6778;BME280;3426;52.244;10.534;2022-08-19T00:23:54;100318.50;;;25.54;58.52
6778;BME280;3426;52.244;10.534;2022-08-19T00:26:21;100308.28;;;25.56;58.23
6778;BME280;3426;52.244;10.534;2022-08-19T00:28:47;100312.22;;;25.39;58.83
6778;BME280;3426;52.244;10.534;2022-08-19T00:31:14;100321.47;;;25.45;58.62
6778;BME280;3426;52.244;10.534;2022-08-19T00:33:43;100324.56;;;25.27;58.76
6778;BME280;3426;52.244;10.534;2022-08-19T00:36:11;100331.75;;;25.34;58.95
6778;BME280;3426;52.244;10.534;2022-08-19T00:38:38;100329.44;;;25.31;58.87
6778;BME280;3426;52.244;10.534;2022-08-19T00:41:12;100332.13;;;25.46;58.30
6778;BME280;3426;52.244;10.534;2022-08-19T00:43:39;100328.59;;;25.16;59.24
6778;BME280;3426;52.244;10.534;2022-08-19T00:46:06;100322.22;;;25.24;59.29
6778;BME280;3426;52.244;10.534;2022-08-19T00:48:34;100320.47;;;24.78;59.98
6778;BME280;3426;52.244;10.534;2022-08-19T00:51:04;100314.78;;;24.50;60.90
6778;BME280;3426;52.244;10.534;2022-08-19T00:53:32;100306.84;;;24.87;60.09
6778;BME280;3426;52.244;10.534;2022-08-19T00:56:01;100316.34;;;24.45;61.44
6778;BME280;3426;52.244;10.534;2022-08-19T00:58:31;100313.00;;;24.95;59.83
6778;BME280;3426;52.244;10.534;2022-08-19T01:00:59;100312.72;;;24.06;61.94
6778;BME280;3426;52.244;10.534;2022-08-19T01:03:27;100302.38;;;24.79;60.02
6778;BME280;3426;52.244;10.534;2022-08-19T01:05:54;100304.94;;;24.72;60.04
6778;BME280;3426;52.244;10.534;2022-08-19T01:08:21;100306.22;;;24.62;60.29
6778;BME280;3426;52.244;10.534;2022-08-19T01:10:52;100305.19;;;24.85;59.44
6778;BME280;3426;52.244;10.534;2022-08-19T01:13:24;100299.19;;;25.05;58.66
6778;BME280;3426;52.244;10.534;2022-08-19T01:15:59;100308.06;;;24.46;60.24
6778;BME280;3426;52.244;10.534;2022-08-19T01:18:27;100319.97;;;24.37;61.10
6778;BME280;3426;52.244;10.534;2022-08-19T01:20:58;100304.50;;;24.83;59.32
6778;BME280;3426;52.244;10.534;2022-08-19T01:23:27;100304.34;;;25.00;58.56
6778;BME280;3426;52.244;10.534;2022-08-19T01:26:16;100291.28;;;25.03;58.41
6778;BME280;3426;52.244;10.534;2022-08-19T01:28:46;100312.84;;;24.97;58.65
6778;BME280;3426;52.244;10.534;2022-08-19T01:31:17;100303.25;;;24.56;59.70
6778;BME280;3426;52.244;10.534;2022-08-19T01:33:56;100307.34;;;24.67;59.49
6778;BME280;3426;52.244;10.534;2022-08-19T01:36:28;100308.41;;;24.43;60.27
6778;BME280;3426;52.244;10.534;2022-08-19T01:38:56;100305.16;;;24.25;60.44
6778;BME280;3426;52.244;10.534;2022-08-19T01:41:24;100299.03;;;24.54;59.48
6778;BME280;3426;52.244;10.534;2022-08-19T01:43:52;100298.81;;;24.41;59.79
6778;BME280;3426;52.244;10.534;2022-08-19T01:46:40;100297.59;;;24.81;58.57
6778;BME280;3426;52.244;10.534;2022-08-19T01:49:07;100294.56;;;24.61;59.31
6778;BME280;3426;52.244;10.534;2022-08-19T01:51:34;100284.00;;;24.51;59.53
6778;BME280;3426;52.244;10.534;2022-08-19T01:54:07;100284.34;;;24.48;59.61
6778;BME280;3426;52.244;10.534;2022-08-19T01:56:33;100287.50;;;24.75;58.75
6778;BME280;3426;52.244;10.534;2022-08-19T01:59:03;100290.34;;;24.13;60.76
6778;BME280;3426;52.244;10.534;2022-08-19T02:01:30;100286.91;;;23.96;61.60
6778;BME280;3426;52.244;10.534;2022-08-19T02:03:59;100273.59;;;23.55;62.48
6778;BME280;3426;52.244;10.534;2022-08-19T02:06:27;100271.94;;;23.85;61.88
6778;BME280;3426;52.244;10.534;2022-08-19T02:08:55;100282.44;;;24.11;60.91
6778;BME280;3426;52.244;10.534;2022-08-19T02:11:28;100288.41;;;24.21;59.87
6778;BME280;3426;52.244;10.534;2022-08-19T02:13:58;100294.06;;;23.89;60.89
6778;BME280;3426;52.244;10.534;2022-08-19T02:16:25;100289.53;;;22.70;64.63
6778;BME280;3426;52.244;10.534;2022-08-19T02:18:52;100292.47;;;23.71;62.27
6778;BME280;3426;52.244;10.534;2022-08-19T02:21:21;100290.41;;;24.04;61.18
6778;BME280;3426;52.244;10.534;2022-08-19T02:23:48;100285.66;;;24.06;60.21
6778;BME280;3426;52.244;10.534;2022-08-19T02:26:16;100291.47;;;23.64;61.07
6778;BME280;3426;52.244;10.534;2022-08-19T02:28:43;100283.91;;;24.14;59.98
6778;BME280;3426;52.244;10.534;2022-08-19T02:31:12;100283.84;;;24.22;59.59
6778;BME280;3426;52.244;10.534;2022-08-19T02:33:39;100277.13;;;24.18;59.78
6778;BME280;3426;52.244;10.534;2022-08-19T02:36:07;100283.56;;;24.17;59.50
6778;BME280;3426;52.244;10.534;2022-08-19T02:38:34;100280.41;;;24.36;59.18
6778;BME280;3426;52.244;10.534;2022-08-19T02:41:17;100280.59;;;24.03;60.12
6778;BME280;3426;52.244;10.534;2022-08-19T02:43:44;100276.81;;;23.11;62.78
6778;BME280;3426;52.244;10.534;2022-08-19T02:46:31;100275.84;;;23.83;60.73
6778;BME280;3426;52.244;10.534;2022-08-19T02:49:05;100279.75;;;24.03;60.01
6778;BME280;3426;52.244;10.534;2022-08-19T02:51:39;100270.34;;;23.68;60.77
6778;BME280;3426;52.244;10.534;2022-08-19T02:54:07;100276.63;;;24.14;59.51
6778;BME280;3426;52.244;10.534;2022-08-19T02:56:36;100272.66;;;24.25;59.19
6778;BME280;3426;52.244;10.534;2022-08-19T02:59:05;100275.25;;;24.18;59.36
6778;BME280;3426;52.244;10.534;2022-08-19T03:01:38;100287.69;;;24.04;59.86
6778;BME280;3426;52.244;10.534;2022-08-19T03:04:07;100285.38;;;24.24;59.09
6778;BME280;3426;52.244;10.534;2022-08-19T03:06:37;100275.91;;;23.97;59.55
6778;BME280;3426;52.244;10.534;2022-08-19T03:09:03;100286.84;;;24.04;59.64
6778;BME280;3426;52.244;10.534;2022-08-19T03:11:32;100284.03;;;23.97;60.04
6778;BME280;3426;52.244;10.534;2022-08-19T03:13:59;100280.38;;;24.13;59.41
6778;BME280;3426;52.244;10.534;2022-08-19T03:16:29;100295.50;;;23.99;59.74
6778;BME280;3426;52.244;10.534;2022-08-19T03:19:00;100297.63;;;23.42;61.26
6778;BME280;3426;52.244;10.534;2022-08-19T03:21:30;100303.44;;;23.70;60.79
6778;BME280;3426;52.244;10.534;2022-08-19T03:23:59;100307.88;;;23.94;60.03
6778;BME280;3426;52.244;10.534;2022-08-19T03:26:25;100301.28;;;23.18;62.08
6778;BME280;3426;52.244;10.534;2022-08-19T03:28:52;100302.00;;;23.90;60.13
6778;BME280;3426;52.244;10.534;2022-08-19T03:31:25;100297.50;;;23.35;62.15
6778;BME280;3426;52.244;10.534;2022-08-19T03:34:18;100299.22;;;23.28;62.02
6778;BME280;3426;52.244;10.534;2022-08-19T03:36:46;100297.66;;;23.81;60.47
6778;BME280;3426;52.244;10.534;2022-08-19T03:39:14;100305.28;;;23.77;60.51
6778;BME280;3426;52.244;10.534;2022-08-19T03:41:43;100312.31;;;23.47;61.30
6778;BME280;3426;52.244;10.534;2022-08-19T03:44:15;100316.13;;;23.22;62.40
6778;BME280;3426;52.244;10.534;2022-08-19T03:46:44;100307.28;;;23.36;61.74
6778;BME280;3426;52.244;10.534;2022-08-19T03:49:11;100305.13;;;23.71;60.38
6778;BME280;3426;52.244;10.534;2022-08-19T03:51:41;100305.22;;;22.91;63.08
6778;BME280;3426;52.244;10.534;2022-08-19T03:54:11;100306.09;;;23.39;61.58
6778;BME280;3426;52.244;10.534;2022-08-19T03:56:41;100302.56;;;23.30;61.82
6778;BME280;3426;52.244;10.534;2022-08-19T03:59:12;100296.03;;;23.64;60.55
6778;BME280;3426;52.244;10.534;2022-08-19T04:01:39;100296.91;;;22.84;62.50
6778;BME280;3426;52.244;10.534;2022-08-19T04:04:06;100291.88;;;23.45;61.10
6778;BME280;3426;52.244;10.534;2022-08-19T04:06:36;100300.19;;;23.35;61.10
6778;BME280;3426;52.244;10.534;2022-08-19T04:09:07;100294.41;;;22.99;62.29
6778;BME280;3426;52.244;10.534;2022-08-19T04:11:37;100300.13;;;22.80;62.23
6778;BME280;3426;52.244;10.534;2022-08-19T04:14:13;100306.91;;;22.43;63.72
6778;BME280;3426;52.244;10.534;2022-08-19T04:16:40;100306.47;;;23.27;61.17
6778;BME280;3426;52.244;10.534;2022-08-19T04:19:07;100313.84;;;23.42;61.03
6778;BME280;3426;52.244;10.534;2022-08-19T04:21:34;100318.03;;;23.05;62.08
6778;BME280;3426;52.244;10.534;2022-08-19T04:24:01;100325.81;;;23.47;60.61
6778;BME280;3426;52.244;10.534;2022-08-19T04:26:32;100321.84;;;23.27;61.25
6778;BME280;3426;52.244;10.534;2022-08-19T04:29:06;100319.22;;;22.54;62.97
6778;BME280;3426;52.244;10.534;2022-08-19T04:31:38;100320.56;;;22.74;63.34
6778;BME280;3426;52.244;10.534;2022-08-19T04:34:07;100319.75;;;22.41;63.66
6778;BME280;3426;52.244;10.534;2022-08-19T04:36:36;100318.38;;;22.78;63.17
6778;BME280;3426;52.244;10.534;2022-08-19T04:39:06;100320.88;;;22.79;63.00
6778;BME280;3426;52.244;10.534;2022-08-19T04:41:33;100336.88;;;22.15;64.31
6778;BME280;3426;52.244;10.534;2022-08-19T04:44:18;100338.78;;;23.05;61.68
6778;BME280;3426;52.244;10.534;2022-08-19T04:46:47;100337.13;;;22.87;62.76
6778;BME280;3426;52.244;10.534;2022-08-19T04:49:20;100333.06;;;22.75;63.00
6778;BME280;3426;52.244;10.534;2022-08-19T04:51:49;100333.88;;;22.84;62.51
6778;BME280;3426;52.244;10.534;2022-08-19T04:54:17;100327.63;;;23.08;61.72
6778;BME280;3426;52.244;10.534;2022-08-19T04:57:06;100328.34;;;22.53;63.66
6778;BME280;3426;52.244;10.534;2022-08-19T04:59:36;100328.31;;;22.85;62.45
6778;BME280;3426;52.244;10.534;2022-08-19T05:02:03;100327.31;;;22.78;62.37
6778;BME280;3426;52.244;10.534;2022-08-19T05:04:30;100328.69;;;22.98;61.87
6778;BME280;3426;52.244;10.534;2022-08-19T05:06:59;100328.16;;;22.87;61.67
6778;BME280;3426;52.244;10.534;2022-08-19T05:09:28;100322.25;;;22.75;62.58
6778;BME280;3426;52.244;10.534;2022-08-19T05:12:15;100306.00;;;23.08;61.33
6778;BME280;3426;52.244;10.534;2022-08-19T05:14:42;100303.31;;;23.16;60.91
6778;BME280;3426;52.244;10.534;2022-08-19T05:17:09;100300.63;;;23.08;61.17
6778;BME280;3426;52.244;10.534;2022-08-19T05:19:52;100314.31;;;22.82;62.23
6778;BME280;3426;52.244;10.534;2022-08-19T05:22:38;100313.31;;;22.26;63.68
6778;BME280;3426;52.244;10.534;2022-08-19T05:25:08;100315.16;;;22.25;64.01
6778;BME280;3426;52.244;10.534;2022-08-19T05:27:39;100311.25;;;22.85;62.14
6778;BME280;3426;52.244;10.534;2022-08-19T05:30:06;100308.94;;;22.98;61.62
6778;BME280;3426;52.244;10.534;2022-08-19T05:32:33;100313.78;;;23.02;61.57
6778;BME280;3426;52.244;10.534;2022-08-19T05:34:59;100320.53;;;23.07;61.22
6778;BME280;3426;52.244;10.534;2022-08-19T05:37:26;100331.38;;;22.82;62.15
6778;BME280;3426;52.244;10.534;2022-08-19T05:39:53;100320.69;;;23.13;60.83
6778;BME280;3426;52.244;10.534;2022-08-19T05:42:21;100325.63;;;22.36;62.81
6778;BME280;3426;52.244;10.534;2022-08-19T05:44:49;100324.28;;;22.89;61.89
6778;BME280;3426;52.244;10.534;2022-08-19T05:47:17;100328.81;;;23.05;61.26
6778;BME280;3426;52.244;10.534;2022-08-19T05:49:46;100330.84;;;23.11;61.06
6778;BME280;3426;52.244;10.534;2022-08-19T05:52:15;100339.47;;;22.98;61.28
6778;BME280;3426;52.244;10.534;2022-08-19T05:54:45;100328.81;;;22.32;62.84
6778;BME280;3426;52.244;10.534;2022-08-19T05:57:18;100327.47;;;22.44;62.86
6778;BME280;3426;52.244;10.534;2022-08-19T05:59:45;100333.38;;;22.96;61.58
6778;BME280;3426;52.244;10.534;2022-08-19T06:02:14;100340.78;;;22.45;63.39
6778;BME280;3426;52.244;10.534;2022-08-19T06:04:41;100329.16;;;22.61;62.65
6778;BME280;3426;52.244;10.534;2022-08-19T06:07:10;100331.88;;;22.94;61.96
6778;BME280;3426;52.244;10.534;2022-08-19T06:09:39;100334.00;;;21.66;64.86
6778;BME280;3426;52.244;10.534;2022-08-19T06:12:06;100340.47;;;22.24;63.34
6778;BME280;3426;52.244;10.534;2022-08-19T06:14:34;100342.16;;;22.25;64.04
6778;BME280;3426;52.244;10.534;2022-08-19T06:17:07;100336.41;;;23.01;61.59
6778;BME280;3426;52.244;10.534;2022-08-19T06:19:33;100337.97;;;22.88;61.97
6778;BME280;3426;52.244;10.534;2022-08-19T06:22:06;100346.06;;;22.88;61.78
6778;BME280;3426;52.244;10.534;2022-08-19T06:24:33;100349.88;;;22.28;64.14
6778;BME280;3426;52.244;10.534;2022-08-19T06:27:02;100356.97;;;22.29;63.55
6778;BME280;3426;52.244;10.534;2022-08-19T06:29:29;100361.63;;;22.03;63.88
6778;BME280;3426;52.244;10.534;2022-08-19T06:31:58;100356.31;;;22.84;62.42
6778;BME280;3426;52.244;10.534;2022-08-19T06:34:25;100362.09;;;22.89;61.77
6778;BME280;3426;52.244;10.534;2022-08-19T06:36:56;100361.03;;;22.74;61.96
6778;BME280;3426;52.244;10.534;2022-08-19T06:39:26;100364.78;;;23.06;60.86
6778;BME280;3426;52.244;10.534;2022-08-19T06:41:56;100372.88;;;22.81;61.20
6778;BME280;3426;52.244;10.534;2022-08-19T06:44:29;100377.59;;;23.12;60.38
6778;BME280;3426;52.244;10.534;2022-08-19T06:46:57;100385.19;;;22.59;62.50
6778;BME280;3426;52.244;10.534;2022-08-19T06:49:24;100386.72;;;22.86;61.36
6778;BME280;3426;52.244;10.534;2022-08-19T06:51:58;100377.94;;;22.76;61.02
6778;BME280;3426;52.244;10.534;2022-08-19T06:54:27;100368.81;;;23.01;60.33
6778;BME280;3426;52.244;10.534;2022-08-19T06:57:03;100378.47;;;22.96;60.50
6778;BME280;3426;52.244;10.534;2022-08-19T06:59:31;100386.72;;;22.78;60.56
6778;BME280;3426;52.244;10.534;2022-08-19T07:02:02;100394.50;;;22.97;60.55
6778;BME280;3426;52.244;10.534;2022-08-19T07:04:32;100396.19;;;23.15;59.57
6778;BME280;3426;52.244;10.534;2022-08-19T07:07:06;100399.69;;;23.23;59.15
6778;BME280;3426;52.244;10.534;2022-08-19T07:09:46;100394.47;;;23.14;59.29
6778;BME280;3426;52.244;10.534;2022-08-19T07:12:26;100398.69;;;23.08;59.61
6778;BME280;3426;52.244;10.534;2022-08-19T07:14:55;100413.34;;;22.06;62.03
6778;BME280;3426;52.244;10.534;2022-08-19T07:17:23;100420.50;;;22.98;59.68
6778;BME280;3426;52.244;10.534;2022-08-19T07:19:50;100413.03;;;22.84;60.02
6778;BME280;3426;52.244;10.534;2022-08-19T07:22:19;100410.16;;;22.86;60.05
6778;BME280;3426;52.244;10.534;2022-08-19T07:24:49;100417.63;;;23.16;59.00
6778;BME280;3426;52.244;10.534;2022-08-19T07:27:17;100422.81;;;22.61;59.97
6778;BME280;3426;52.244;10.534;2022-08-19T07:29:50;100427.03;;;22.80;59.88
6778;BME280;3426;52.244;10.534;2022-08-19T07:32:21;100427.66;;;21.99;61.84
6778;BME280;3426;52.244;10.534;2022-08-19T07:34:48;100436.91;;;22.30;61.09
6778;BME280;3426;52.244;10.534;2022-08-19T07:37:15;100439.00;;;22.61;60.52
6778;BME280;3426;52.244;10.534;2022-08-19T07:39:42;100445.06;;;22.63;59.98
6778;BME280;3426;52.244;10.534;2022-08-19T07:42:10;100447.66;;;22.14;61.51
6778;BME280;3426;52.244;10.534;2022-08-19T07:44:39;100449.97;;;22.67;60.19
6778;BME280;3426;52.244;10.534;2022-08-19T07:47:11;100463.66;;;21.81;62.53
6778;BME280;3426;52.244;10.534;2022-08-19T07:50:02;100459.94;;;21.82;62.22
6778;BME280;3426;52.244;10.534;2022-08-19T07:52:33;100472.50;;;23.00;59.22
6778;BME280;3426;52.244;10.534;2022-08-19T07:55:00;100454.25;;;23.19;58.78
6778;BME280;3426;52.244;10.534;2022-08-19T07:57:29;100471.16;;;23.05;59.17
6778;BME280;3426;52.244;10.534;2022-08-19T07:59:56;100458.75;;;22.61;60.06
6778;BME280;3426;52.244;10.534;2022-08-19T08:02:23;100464.72;;;23.14;58.58
6778;BME280;3426;52.244;10.534;2022-08-19T08:04:49;100466.97;;;22.35;60.54
6778;BME280;3426;52.244;10.534;2022-08-19T08:07:34;100464.56;;;23.07;58.92
6778;BME280;3426;52.244;10.534;2022-08-19T08:10:19;100475.53;;;23.22;58.96
6778;BME280;3426;52.244;10.534;2022-08-19T08:12:49;100471.81;;;22.32;61.25
6778;BME280;3426;52.244;10.534;2022-08-19T08:15:38;100463.38;;;23.26;58.70
6778;BME280;3426;52.244;10.534;2022-08-19T08:18:10;100465.03;;;22.86;59.80
6778;BME280;3426;52.244;10.534;2022-08-19T08:20:38;100458.25;;;22.58;60.48
6778;BME280;3426;52.244;10.534;2022-08-19T08:23:04;100457.13;;;23.34;58.57
6778;BME280;3426;52.244;10.534;2022-08-19T08:25:52;100456.22;;;22.68;60.54
6778;BME280;3426;52.244;10.534;2022-08-19T08:28:19;100456.97;;;22.94;59.90
6778;BME280;3426;52.244;10.534;2022-08-19T08:30:47;100459.56;;;22.54;60.21
6778;BME280;3426;52.244;10.534;2022-08-19T08:33:21;100457.28;;;23.08;59.54
6778;BME280;3426;52.244;10.534;2022-08-19T08:36:10;100453.56;;;23.25;58.62
6778;BME280;3426;52.244;10.534;2022-08-19T08:38:38;100465.72;;;22.96;58.80
6778;BME280;3426;52.244;10.534;2022-08-19T08:44:18;100464.09;;;22.37;60.70
6778;BME280;3426;52.244;10.534;2022-08-19T08:46:56;100459.13;;;22.83;59.28
6778;BME280;3426;52.244;10.534;2022-08-19T08:49:33;100458.97;;;23.25;58.36
6778;BME280;3426;52.244;10.534;2022-08-19T08:52:11;100465.22;;;23.34;57.94
6778;BME280;3426;52.244;10.534;2022-08-19T08:54:43;100461.63;;;22.84;59.05
6778;BME280;3426;52.244;10.534;2022-08-19T08:57:29;100466.69;;;22.71;59.47
6778;BME280;3426;52.244;10.534;2022-08-19T09:00:10;100461.00;;;23.39;57.77
6778;BME280;3426;52.244;10.534;2022-08-19T09:02:41;100464.72;;;23.06;57.92
6778;BME280;3426;52.244;10.534;2022-08-19T09:05:09;100458.63;;;22.20;60.13
6778;BME280;3426;52.244;10.534;2022-08-19T09:08:02;100454.00;;;22.55;58.83
6778;BME280;3426;52.244;10.534;2022-08-19T09:10:42;100458.91;;;22.68;59.11
6778;BME280;3426;52.244;10.534;2022-08-19T09:16:21;100450.59;;;23.92;56.25
6778;BME280;3426;52.244;10.534;2022-08-19T09:18:56;100458.59;;;23.52;57.25
6778;BME280;3426;52.244;10.534;2022-08-19T09:21:25;100459.16;;;24.03;56.25
6778;BME280;3426;52.244;10.534;2022-08-19T09:23:58;100469.88;;;23.80;56.92
6778;BME280;3426;52.244;10.534;2022-08-19T09:26:25;100470.97;;;24.11;55.82
6778;BME280;3426;52.244;10.534;2022-08-19T09:29:12;100478.56;;;23.11;57.46
6778;BME280;3426;52.244;10.534;2022-08-19T09:31:39;100470.63;;;23.66;56.11
6778;BME280;3426;52.244;10.534;2022-08-19T09:34:05;100477.53;;;24.16;55.08
6778;BME280;3426;52.244;10.534;2022-08-19T09:36:32;100480.25;;;23.44;55.76
6778;BME280;3426;52.244;10.534;2022-08-19T09:39:02;100478.91;;;23.48;55.76
6778;BME280;3426;52.244;10.534;2022-08-19T09:41:29;100490.38;;;22.93;57.26
6778;BME280;3426;52.244;10.534;2022-08-19T09:43:57;100485.28;;;23.80;56.14
6778;BME280;3426;52.244;10.534;2022-08-19T09:46:27;100481.09;;;24.17;54.61
6778;BME280;3426;52.244;10.534;2022-08-19T09:48:57;100489.34;;;23.02;57.00
6778;BME280;3426;52.244;10.534;2022-08-19T09:51:32;100476.47;;;22.80;57.70
6778;BME280;3426;52.244;10.534;2022-08-19T09:54:02;100478.84;;;23.81;55.71
6778;BME280;3426;52.244;10.534;2022-08-19T09:56:31;100481.72;;;24.27;54.68
6778;BME280;3426;52.244;10.534;2022-08-19T09:59:00;100483.22;;;23.82;55.08
6778;BME280;3426;52.244;10.534;2022-08-19T10:01:28;100482.63;;;24.50;53.33
6778;BME280;3426;52.244;10.534;2022-08-19T10:03:57;100478.44;;;24.48;53.95
6778;BME280;3426;52.244;10.534;2022-08-19T10:06:28;100468.28;;;24.02;55.20
6778;BME280;3426;52.244;10.534;2022-08-19T10:09:12;100469.72;;;24.61;53.74
6778;BME280;3426;52.244;10.534;2022-08-19T10:11:41;100473.41;;;24.37;54.18
6778;BME280;3426;52.244;10.534;2022-08-19T10:14:19;100470.25;;;24.56;53.55
6778;BME280;3426;52.244;10.534;2022-08-19T10:16:48;100477.63;;;24.31;54.11
6778;BME280;3426;52.244;10.534;2022-08-19T10:19:15;100468.56;;;24.24;54.30
6778;BME280;3426;52.244;10.534;2022-08-19T10:21:51;100461.28;;;23.77;55.70
6778;BME280;3426;52.244;10.534;2022-08-19T10:24:18;100461.84;;;24.51;53.65
6778;BME280;3426;52.244;10.534;2022-08-19T10:26:46;100454.63;;;24.89;52.44
6778;BME280;3426;52.244;10.534;2022-08-19T10:29:22;100454.50;;;24.20;54.51
6778;BME280;3426;52.244;10.534;2022-08-19T10:32:00;100453.59;;;24.67;53.33
6778;BME280;3426;52.244;10.534;2022-08-19T10:34:28;100454.44;;;23.97;54.96
6778;BME280;3426;52.244;10.534;2022-08-19T10:36:56;100453.94;;;24.33;54.40
6778;BME280;3426;52.244;10.534;2022-08-19T10:39:27;100452.06;;;24.42;54.40
6778;BME280;3426;52.244;10.534;2022-08-19T10:42:07;100448.06;;;23.82;55.22
6778;BME280;3426;52.244;10.534;2022-08-19T10:44:37;100452.22;;;24.71;52.90
6778;BME280;3426;52.244;10.534;2022-08-19T10:47:04;100450.56;;;24.31;54.11
6778;BME280;3426;52.244;10.534;2022-08-19T10:49:49;100444.53;;;24.21;54.22
6778;BME280;3426;52.244;10.534;2022-08-19T10:52:37;100440.63;;;24.85;53.14
6778;BME280;3426;52.244;10.534;2022-08-19T10:55:05;100433.69;;;24.60;53.60
6778;BME280;3426;52.244;10.534;2022-08-19T10:57:54;100430.94;;;25.14;52.84
6778;BME280;3426;52.244;10.534;2022-08-19T11:00:28;100427.44;;;25.05;53.55
6778;BME280;3426;52.244;10.534;2022-08-19T11:02:57;100419.94;;;25.30;52.52
6778;BME280;3426;52.244;10.534;2022-08-19T11:05:23;100407.03;;;25.32;51.53
6778;BME280;3426;52.244;10.534;2022-08-19T11:07:50;100409.19;;;25.67;51.32
6778;BME280;3426;52.244;10.534;2022-08-19T11:10:19;100404.31;;;26.06;50.24
6778;BME280;3426;52.244;10.534;2022-08-19T11:12:47;100406.47;;;26.47;49.41
6778;BME280;3426;52.244;10.534;2022-08-19T11:15:15;100407.03;;;26.06;50.29
6778;BME280;3426;52.244;10.534;2022-08-19T11:17:42;100406.31;;;25.83;50.63
6778;BME280;3426;52.244;10.534;2022-08-19T11:20:11;100406.47;;;25.96;50.10
6778;BME280;3426;52.244;10.534;2022-08-19T11:22:40;100405.72;;;26.02;50.06
6778;BME280;3426;52.244;10.534;2022-08-19T11:25:09;100396.28;;;26.34;50.01
6778;BME280;3426;52.244;10.534;2022-08-19T11:27:40;100400.22;;;25.96;49.23
6778;BME280;3426;52.244;10.534;2022-08-19T11:30:10;100392.19;;;26.81;48.29
6778;BME280;3426;52.244;10.534;2022-08-19T11:32:42;100398.09;;;26.85;48.61
6778;BME280;3426;52.244;10.534;2022-08-19T11:35:15;100390.28;;;27.03;48.17
6778;BME280;3426;52.244;10.534;2022-08-19T11:37:42;100380.22;;;26.97;48.33
6778;BME280;3426;52.244;10.534;2022-08-19T11:40:09;100392.63;;;26.42;48.73
6778;BME280;3426;52.244;10.534;2022-08-19T11:42:36;100387.34;;;26.19;49.41
6778;BME280;3426;52.244;10.534;2022-08-19T11:45:26;100393.53;;;25.09;51.24
6778;BME280;3426;52.244;10.534;2022-08-19T11:47:53;100388.63;;;27.02;48.06
6778;BME280;3426;52.244;10.534;2022-08-19T11:50:20;100399.22;;;27.18;47.84
6778;BME280;3426;52.244;10.534;2022-08-19T11:52:47;100399.00;;;27.48;47.25
6778;BME280;3426;52.244;10.534;2022-08-19T11:55:15;100405.97;;;26.80;47.31
6778;BME280;3426;52.244;10.534;2022-08-19T11:57:42;100406.06;;;26.29;48.93
6778;BME280;3426;52.244;10.534;2022-08-19T12:00:10;100399.00;;;26.49;49.33
6778;BME280;3426;52.244;10.534;2022-08-19T12:02:39;100396.69;;;26.67;47.89
6778;BME280;3426;52.244;10.534;2022-08-19T12:05:06;100405.78;;;26.24;49.47
6778;BME280;3426;52.244;10.534;2022-08-19T12:07:37;100395.41;;;27.41;47.02
6778;BME280;3426;52.244;10.534;2022-08-19T12:10:04;100394.69;;;26.40;49.03
6778;BME280;3426;52.244;10.534;2022-08-19T12:12:31;100392.88;;;27.11;48.52
6778;BME280;3426;52.244;10.534;2022-08-19T12:14:57;100391.03;;;26.11;49.54
6778;BME280;3426;52.244;10.534;2022-08-19T12:17:27;100393.94;;;26.89;48.22
6778;BME280;3426;52.244;10.534;2022-08-19T12:19:54;100380.50;;;27.30;47.52
6778;BME280;3426;52.244;10.534;2022-08-19T12:22:21;100393.53;;;26.92;48.33
6778;BME280;3426;52.244;10.534;2022-08-19T12:24:48;100394.75;;;26.61;48.90
6778;BME280;3426;52.244;10.534;2022-08-19T12:27:16;100391.75;;;25.17;52.50
6778;BME280;3426;52.244;10.534;2022-08-19T12:29:57;100402.84;;;24.84;53.65
6778;BME280;3426;52.244;10.534;2022-08-19T12:32:25;100390.59;;;26.29;50.38
6778;BME280;3426;52.244;10.534;2022-08-19T12:34:53;100396.03;;;25.78;50.73
6778;BME280;3426;52.244;10.534;2022-08-19T12:37:20;100400.03;;;25.97;50.73
6778;BME280;3426;52.244;10.534;2022-08-19T12:39:47;100400.09;;;25.30;52.00
6778;BME280;3426;52.244;10.534;2022-08-19T12:42:14;100382.59;;;26.06;49.76
6778;BME280;3426;52.244;10.534;2022-08-19T12:44:42;100384.97;;;26.31;50.16
6778;BME280;3426;52.244;10.534;2022-08-19T12:47:12;100392.81;;;27.05;48.26
6778;BME280;3426;52.244;10.534;2022-08-19T12:49:40;100393.03;;;26.82;48.80
6778;BME280;3426;52.244;10.534;2022-08-19T12:52:24;100389.38;;;24.99;52.13
6778;BME280;3426;52.244;10.534;2022-08-19T12:54:53;100383.22;;;25.87;50.36
6778;BME280;3426;52.244;10.534;2022-08-19T12:57:26;100382.38;;;26.80;48.81
6778;BME280;3426;52.244;10.534;2022-08-19T13:00:03;100386.44;;;26.69;48.79
6778;BME280;3426;52.244;10.534;2022-08-19T13:05:06;100383.56;;;27.55;47.23
6778;BME280;3426;52.244;10.534;2022-08-19T13:07:35;100386.19;;;27.07;48.08
6778;BME280;3426;52.244;10.534;2022-08-19T13:10:01;100376.63;;;27.46;46.88
6778;BME280;3426;52.244;10.534;2022-08-19T13:12:28;100379.84;;;26.57;48.58
6778;BME280;3426;52.244;10.534;2022-08-19T13:14:55;100380.09;;;25.90;50.21
6778;BME280;3426;52.244;10.534;2022-08-19T13:17:21;100379.06;;;26.63;48.71
6778;BME280;3426;52.244;10.534;2022-08-19T13:19:49;100375.66;;;27.04;47.81
6778;BME280;3426;52.244;10.534;2022-08-19T13:22:17;100367.88;;;27.23;47.14
6778;BME280;3426;52.244;10.534;2022-08-19T13:24:44;100370.75;;;27.14;47.66
6778;BME280;3426;52.244;10.534;2022-08-19T13:27:13;100378.81;;;26.58;48.97